Time;durP1;ratioP1;P1;durP2;ratioP2;P2;SDS_P1;SDS_P2;PMS_P1;PMS_P2;Temp;Humidity;BMP_temperature;BMP_pressure;BME280_temperature;BME280_humidity;BME280_pressure;Samples;Min_cycle;Max_cycle;Signal;HPM_P1;HPM_P2
2021/12/06 00:00:49;;;;;;;4.03;1.65;;;;;;;;;;4965874;28;20204;-89
2021/12/06 00:03:18;;;;;;;8.95;2.35;;;;;;;;;;4944525;29;20212;-89
2021/12/06 00:05:44;;;;;;;9.45;2.53;;;;;;;;;;4945414;29;20219;-90
2021/12/06 00:08:10;;;;;;;2.50;2.05;;;;;;;;;;4947044;28;20219;-88
2021/12/06 00:10:36;;;;;;;4.70;1.88;;;;;;;;;;4949068;29;20188;-88
2021/12/06 00:13:02;;;;;;;4.50;1.80;;;;;;;;;;4946013;29;20212;-89
2021/12/06 00:15:32;;;;;;;3.50;2.08;;;;;;;;;;4943794;29;20196;-89
2021/12/06 00:17:58;;;;;;;7.45;2.63;;;;;;;;;;4944091;29;20180;-90
2021/12/06 00:20:24;;;;;;;5.60;2.00;;;;;;;;;;4965911;29;20184;-88
2021/12/06 00:22:51;;;;;;;3.13;2.05;;;;;;;;;;4949226;29;20204;-89
2021/12/06 00:25:17;;;;;;;7.13;2.78;;;;;;;;;;4947743;29;20188;-89
2021/12/06 00:27:43;;;;;;;2.38;1.83;;;;;;;;;;4964348;28;20634;-87
2021/12/06 00:30:12;;;;;;;1.40;1.30;;;;;;;;;;4947114;29;20200;-88
2021/12/06 00:32:39;;;;;;;4.82;1.95;;;;;;;;;;4947786;29;20214;-89
2021/12/06 00:35:18;;;;;;;1.98;1.30;;;;;;;;;;4946770;29;20244;-87
2021/12/06 00:37:53;;;;;;;2.85;1.60;;;;;;;;;;4948039;29;20275;-87
2021/12/06 00:40:20;;;;;;;4.35;2.03;;;;;;;;;;4947335;29;20531;-88
2021/12/06 00:42:46;;;;;;;3.00;2.00;;;;;;;;;;4945106;29;20212;-90
2021/12/06 00:45:12;;;;;;;4.63;2.00;;;;;;;;;;4964897;28;20572;-89
2021/12/06 00:47:38;;;;;;;7.55;2.65;;;;;;;;;;4944899;29;20545;-89
2021/12/06 00:50:06;;;;;;;3.83;1.88;;;;;;;;;;4947329;29;20244;-87
2021/12/06 00:52:32;;;;;;;4.05;1.70;;;;;;;;;;4946417;29;20208;-88
2021/12/06 00:54:58;;;;;;;5.25;1.92;;;;;;;;;;4961222;28;20549;-90
2021/12/06 00:57:24;;;;;;;4.60;2.33;;;;;;;;;;4964836;29;20196;-91
2021/12/06 00:59:51;;;;;;;6.57;2.25;;;;;;;;;;4945420;29;20192;-88
2021/12/06 01:02:18;;;;;;;7.95;1.92;;;;;;;;;;4947704;28;20216;-90
2021/12/06 01:04:45;;;;;;;3.30;2.17;;;;;;;;;;4948575;29;20224;-87
2021/12/06 01:07:11;;;;;;;4.15;2.20;;;;;;;;;;4945677;29;20192;-90
2021/12/06 01:09:37;;;;;;;3.92;2.13;;;;;;;;;;4946898;29;20188;-87
2021/12/06 01:12:04;;;;;;;5.57;2.13;;;;;;;;;;4942907;29;20191;-87
2021/12/06 01:14:30;;;;;;;3.10;2.55;;;;;;;;;;4947344;29;20224;-85
2021/12/06 01:16:56;;;;;;;3.97;1.65;;;;;;;;;;4941562;29;20188;-86
2021/12/06 01:19:28;;;;;;;4.38;1.88;;;;;;;;;;4941437;29;20192;-87
2021/12/06 01:22:10;;;;;;;9.95;2.08;;;;;;;;;;4947635;29;20275;-89
2021/12/06 01:24:47;;;;;;;8.40;3.00;;;;;;;;;;4945201;29;20184;-88
2021/12/06 01:32:25;;;;;;;5.78;2.20;;;;;;;;;;4964242;28;20188;-90
2021/12/06 01:40:06;;;;;;;4.13;2.63;;;;;;;;;;4968125;28;20236;-90
2021/12/06 01:42:32;;;;;;;3.53;2.22;;;;;;;;;;4968513;28;20211;-91
2021/12/06 01:44:58;;;;;;;4.38;2.42;;;;;;;;;;4946714;29;20185;-90
2021/12/06 01:47:27;;;;;;;7.63;2.20;;;;;;;;;;4948689;29;20220;-89
2021/12/06 01:49:55;;;;;;;4.53;2.35;;;;;;;;;;4944890;29;20177;-90
2021/12/06 01:52:41;;;;;;;3.95;2.10;;;;;;;;;;4950289;29;20207;-93
2021/12/06 01:55:09;;;;;;;4.10;2.47;;;;;;;;;;4950272;29;20282;-90
2021/12/06 01:57:35;;;;;;;3.47;2.45;;;;;;;;;;4948184;29;20192;-89
2021/12/06 02:00:01;;;;;;;6.07;2.58;;;;;;;;;;4967758;28;20192;-91
2021/12/06 02:02:29;;;;;;;3.70;2.20;;;;;;;;;;4966956;28;20315;-90
2021/12/06 02:04:55;;;;;;;7.03;2.38;;;;;;;;;;4945246;29;20280;-88
2021/12/06 02:07:22;;;;;;;7.25;2.50;;;;;;;;;;4943720;29;20181;-87
2021/12/06 02:09:50;;;;;;;6.60;2.78;;;;;;;;;;4944247;29;20191;-86
2021/12/06 02:12:17;;;;;;;9.10;2.47;;;;;;;;;;4947149;29;20185;-89
2021/12/06 02:15:07;;;;;;;4.10;1.95;;;;;;;;;;4944464;29;20197;-89
2021/12/06 02:17:38;;;;;;;3.95;2.03;;;;;;;;;;4943017;29;20185;-87
2021/12/06 02:20:08;;;;;;;4.75;2.15;;;;;;;;;;4949355;29;20177;-88
2021/12/06 02:22:37;;;;;;;4.40;2.50;;;;;;;;;;4949507;29;20201;-88
2021/12/06 02:25:04;;;;;;;5.55;2.55;;;;;;;;;;4945240;29;20196;-87
2021/12/06 02:27:30;;;;;;;3.65;2.20;;;;;;;;;;4945088;29;20204;-88
2021/12/06 02:29:58;;;;;;;5.30;2.40;;;;;;;;;;4946361;29;20196;-88
2021/12/06 02:32:24;;;;;;;2.20;1.80;;;;;;;;;;4948188;29;20189;-88
2021/12/06 02:34:52;;;;;;;6.45;2.30;;;;;;;;;;4948536;29;20197;-88
2021/12/06 02:37:21;;;;;;;4.20;2.15;;;;;;;;;;4941989;29;20193;-88
2021/12/06 02:39:48;;;;;;;9.10;2.63;;;;;;;;;;4945846;29;20406;-88
2021/12/06 02:42:16;;;;;;;6.13;2.25;;;;;;;;;;4938176;29;20209;-86
2021/12/06 02:44:44;;;;;;;4.10;2.35;;;;;;;;;;4943999;29;20192;-89
2021/12/06 02:47:11;;;;;;;5.80;1.83;;;;;;;;;;4947074;29;20196;-89
2021/12/06 02:49:37;;;;;;;3.55;2.25;;;;;;;;;;4947289;29;20177;-91
2021/12/06 02:52:04;;;;;;;5.97;2.15;;;;;;;;;;4944163;29;20232;-89
2021/12/06 02:54:30;;;;;;;4.82;2.33;;;;;;;;;;4944340;29;20590;-89
2021/12/06 02:57:21;;;;;;;6.20;2.53;;;;;;;;;;4948290;29;20193;-87
2021/12/06 02:59:44;;;;;;;6.07;2.80;;;;;;;;;;4947619;29;20192;-89
2021/12/06 03:02:11;;;;;;;4.28;1.80;;;;;;;;;;4946415;29;20240;-89
2021/12/06 03:04:38;;;;;;;3.80;1.90;;;;;;;;;;4947520;29;20362;-89
2021/12/06 03:07:05;;;;;;;7.57;2.50;;;;;;;;;;4966605;28;20196;-89
2021/12/06 03:09:34;;;;;;;5.45;2.25;;;;;;;;;;4949052;29;20192;-90
2021/12/06 03:12:03;;;;;;;6.35;1.92;;;;;;;;;;4965860;29;20658;-89
2021/12/06 03:14:30;;;;;;;5.05;2.55;;;;;;;;;;4948186;29;20235;-87
2021/12/06 03:16:58;;;;;;;3.47;2.65;;;;;;;;;;4944008;29;20224;-88
2021/12/06 03:19:25;;;;;;;4.55;2.60;;;;;;;;;;4949789;29;20176;-89
2021/12/06 03:21:51;;;;;;;5.45;1.98;;;;;;;;;;4945183;29;20212;-88
2021/12/06 03:24:17;;;;;;;4.72;2.45;;;;;;;;;;4946564;29;20184;-85
2021/12/06 03:26:44;;;;;;;6.05;2.53;;;;;;;;;;4948231;29;20691;-87
2021/12/06 03:29:10;;;;;;;3.80;2.00;;;;;;;;;;4935833;28;20192;-89
2021/12/06 03:31:36;;;;;;;5.10;2.25;;;;;;;;;;4944480;29;20177;-89
2021/12/06 03:34:02;;;;;;;2.97;2.10;;;;;;;;;;4965354;29;20260;-90
2021/12/06 03:36:30;;;;;;;5.90;2.55;;;;;;;;;;4949053;29;20701;-90
2021/12/06 03:38:57;;;;;;;4.38;2.13;;;;;;;;;;4947727;29;20189;-90
2021/12/06 03:41:25;;;;;;;6.70;2.40;;;;;;;;;;4947304;29;20614;-91
2021/12/06 03:43:51;;;;;;;2.47;2.28;;;;;;;;;;4947252;29;20184;-91
2021/12/06 03:46:18;;;;;;;5.70;2.80;;;;;;;;;;4945374;29;20205;-89
2021/12/06 03:48:45;;;;;;;5.60;2.67;;;;;;;;;;4949658;29;20239;-90
2021/12/06 03:51:11;;;;;;;4.60;2.15;;;;;;;;;;4966123;29;20184;-89
2021/12/06 03:53:37;;;;;;;13.52;2.58;;;;;;;;;;4948853;29;20191;-89
2021/12/06 03:56:04;;;;;;;5.70;2.75;;;;;;;;;;4948714;28;20655;-90
2021/12/06 03:58:30;;;;;;;6.63;1.60;;;;;;;;;;4946440;29;20181;-89
2021/12/06 04:00:56;;;;;;;4.97;1.90;;;;;;;;;;4944438;29;20196;-89
2021/12/06 04:03:24;;;;;;;3.95;2.10;;;;;;;;;;4946260;29;20176;-89
2021/12/06 04:05:50;;;;;;;4.80;2.20;;;;;;;;;;4966249;28;20234;-88
2021/12/06 04:08:16;;;;;;;5.97;2.53;;;;;;;;;;4949180;28;20247;-89
2021/12/06 04:10:42;;;;;;;9.95;2.30;;;;;;;;;;4949452;29;20203;-90
2021/12/06 04:13:09;;;;;;;4.15;2.58;;;;;;;;;;4946771;29;20196;-88
2021/12/06 04:15:37;;;;;;;3.28;2.63;;;;;;;;;;4945104;29;20678;-88
2021/12/06 04:18:03;;;;;;;4.18;2.55;;;;;;;;;;4946884;29;20196;-88
2021/12/06 04:20:30;;;;;;;4.88;2.53;;;;;;;;;;4965415;29;20177;-89
2021/12/06 04:22:57;;;;;;;6.68;2.25;;;;;;;;;;4934568;29;20213;-89
2021/12/06 04:25:23;;;;;;;4.50;2.03;;;;;;;;;;4948186;29;20672;-88
2021/12/06 04:27:55;;;;;;;8.10;2.50;;;;;;;;;;4946527;29;20192;-89
2021/12/06 04:30:23;;;;;;;4.15;2.53;;;;;;;;;;4947964;29;20187;-87
2021/12/06 04:32:50;;;;;;;3.30;2.25;;;;;;;;;;4939719;29;20191;-87
2021/12/06 04:35:16;;;;;;;5.05;2.28;;;;;;;;;;4948087;29;20314;-89
2021/12/06 04:37:42;;;;;;;4.38;2.25;;;;;;;;;;4949579;29;20192;-88
2021/12/06 04:40:08;;;;;;;4.15;1.98;;;;;;;;;;4956224;28;20264;-89
2021/12/06 04:42:34;;;;;;;3.92;1.80;;;;;;;;;;4958815;29;20232;-90
2021/12/06 04:45:00;;;;;;;2.38;2.00;;;;;;;;;;4946717;29;20296;-88
2021/12/06 04:47:27;;;;;;;9.43;2.08;;;;;;;;;;4946569;29;20201;-88
2021/12/06 04:49:53;;;;;;;4.07;1.80;;;;;;;;;;4966841;29;20176;-89
2021/12/06 04:52:19;;;;;;;6.57;2.30;;;;;;;;;;4944931;29;20239;-89
2021/12/06 04:54:47;;;;;;;5.35;2.08;;;;;;;;;;4964077;28;20184;-88
2021/12/06 04:57:21;;;;;;;4.60;2.25;;;;;;;;;;4947276;29;20204;-89
2021/12/06 04:59:50;;;;;;;4.20;2.03;;;;;;;;;;4952870;28;20267;-90
2021/12/06 05:02:19;;;;;;;4.45;2.05;;;;;;;;;;4941962;28;20256;-89
2021/12/06 05:04:47;;;;;;;1.67;1.50;;;;;;;;;;4965976;29;20223;-89
2021/12/06 05:07:39;;;;;;;5.22;1.90;;;;;;;;;;4946725;29;20208;-89
2021/12/06 05:10:06;;;;;;;13.05;2.35;;;;;;;;;;4870770;29;20195;-89
2021/12/06 05:12:33;;;;;;;3.78;2.38;;;;;;;;;;4885614;29;20719;-88
2021/12/06 05:14:59;;;;;;;5.18;2.15;;;;;;;;;;4891619;29;20262;-90
2021/12/06 05:17:26;;;;;;;4.25;1.98;;;;;;;;;;4877229;29;20210;-89
2021/12/06 05:19:52;;;;;;;3.63;2.00;;;;;;;;;;4883536;29;20292;-88
2021/12/06 05:22:18;;;;;;;6.65;2.10;;;;;;;;;;4874904;29;20215;-88
2021/12/06 05:24:44;;;;;;;12.38;3.42;;;;;;;;;;4890312;29;20211;-89
2021/12/06 05:27:10;;;;;;;2.03;1.83;;;;;;;;;;4890234;29;20252;-91
2021/12/06 05:29:37;;;;;;;3.95;2.58;;;;;;;;;;4878560;29;20186;-89
2021/12/06 05:32:03;;;;;;;2.90;2.15;;;;;;;;;;4891848;29;20300;-91
2021/12/06 05:34:40;;;;;;;5.65;2.80;;;;;;;;;;4873160;29;20195;-89
2021/12/06 05:37:11;;;;;;;3.67;2.47;;;;;;;;;;4887983;29;20199;-89
2021/12/06 05:39:37;;;;;;;2.25;1.98;;;;;;;;;;4888572;29;20203;-89
2021/12/06 05:42:05;;;;;;;5.55;2.30;;;;;;;;;;4888296;29;20294;-90
2021/12/06 05:44:31;;;;;;;8.43;3.83;;;;;;;;;;4889395;29;20267;-90
2021/12/06 05:46:58;;;;;;;9.65;2.20;;;;;;;;;;4929829;29;20204;-89
2021/12/06 05:49:25;;;;;;;4.07;2.03;;;;;;;;;;4967075;29;20180;-89
2021/12/06 05:51:51;;;;;;;2.78;1.90;;;;;;;;;;4950331;29;20213;-90
2021/12/06 05:54:17;;;;;;;2.65;1.58;;;;;;;;;;4950416;29;20202;-91
2021/12/06 05:56:44;;;;;;;3.50;1.83;;;;;;;;;;4949544;29;20189;-89
2021/12/06 05:59:10;;;;;;;3.15;2.45;;;;;;;;;;4951596;28;20180;-90
2021/12/06 06:01:36;;;;;;;5.22;2.05;;;;;;;;;;4951325;29;20227;-90
2021/12/06 06:04:02;;;;;;;4.53;1.52;;;;;;;;;;4950696;29;20195;-90
2021/12/06 06:06:29;;;;;;;3.65;1.92;;;;;;;;;;4967250;28;20252;-90
2021/12/06 06:08:56;;;;;;;9.43;2.53;;;;;;;;;;4966751;28;20198;-90
2021/12/06 06:11:22;;;;;;;3.58;1.98;;;;;;;;;;4967560;28;20261;-89
2021/12/06 06:13:48;;;;;;;4.80;1.92;;;;;;;;;;4952326;29;20188;-90
2021/12/06 06:16:18;;;;;;;2.60;2.03;;;;;;;;;;4946640;29;20222;-88
2021/12/06 06:18:44;;;;;;;2.85;1.80;;;;;;;;;;4962846;28;20183;-89
2021/12/06 06:21:11;;;;;;;5.55;2.40;;;;;;;;;;4948653;29;20212;-89
2021/12/06 06:23:37;;;;;;;5.10;2.40;;;;;;;;;;4948747;28;20176;-88
2021/12/06 06:26:03;;;;;;;12.02;3.35;;;;;;;;;;4950386;29;20255;-89
2021/12/06 06:28:29;;;;;;;6.97;2.47;;;;;;;;;;4950537;29;20167;-89
2021/12/06 06:30:55;;;;;;;6.65;2.58;;;;;;;;;;4950463;29;20184;-89
2021/12/06 06:33:21;;;;;;;3.28;2.05;;;;;;;;;;4947448;29;20192;-90
2021/12/06 06:35:47;;;;;;;4.63;2.50;;;;;;;;;;4948910;29;20276;-88
2021/12/06 06:38:14;;;;;;;4.10;2.47;;;;;;;;;;4965721;28;20232;-89
2021/12/06 06:40:40;;;;;;;13.55;4.75;;;;;;;;;;4950732;29;20204;-88
2021/12/06 06:43:06;;;;;;;5.10;2.70;;;;;;;;;;4948305;29;20264;-88
2021/12/06 06:45:33;;;;;;;4.50;2.40;;;;;;;;;;4966396;28;20184;-88
2021/12/06 06:47:59;;;;;;;5.25;2.20;;;;;;;;;;4966773;28;20252;-88
2021/12/06 06:50:25;;;;;;;7.05;3.25;;;;;;;;;;4950086;29;20196;-88
2021/12/06 06:52:52;;;;;;;4.00;3.20;;;;;;;;;;4950470;29;20184;-88
2021/12/06 06:55:19;;;;;;;6.72;3.08;;;;;;;;;;4949294;29;20200;-89
2021/12/06 06:57:46;;;;;;;8.73;4.18;;;;;;;;;;4949736;29;20646;-89
2021/12/06 07:00:14;;;;;;;6.40;4.10;;;;;;;;;;4966900;28;20199;-88
2021/12/06 07:02:41;;;;;;;11.27;5.40;;;;;;;;;;4947387;29;20232;-88
2021/12/06 07:05:07;;;;;;;4.88;4.10;;;;;;;;;;4966138;29;20223;-87
2021/12/06 07:07:33;;;;;;;13.88;5.57;;;;;;;;;;4950658;29;20828;-88
2021/12/06 07:09:59;;;;;;;12.55;6.32;;;;;;;;;;4945809;29;20193;-88
2021/12/06 07:12:26;;;;;;;10.60;5.85;;;;;;;;;;4948654;29;20787;-88
2021/12/06 07:14:52;;;;;;;9.73;5.80;;;;;;;;;;4948577;29;20255;-89
2021/12/06 07:17:18;;;;;;;7.50;5.65;;;;;;;;;;4948869;28;20234;-89
2021/12/06 07:19:44;;;;;;;7.15;3.30;;;;;;;;;;4948764;29;20195;-90
2021/12/06 07:22:10;;;;;;;4.68;3.53;;;;;;;;;;4946359;29;20204;-88
2021/12/06 07:24:37;;;;;;;7.15;3.40;;;;;;;;;;4957427;28;20193;-92
2021/12/06 07:27:03;;;;;;;4.30;3.33;;;;;;;;;;4946538;29;20196;-92
2021/12/06 07:29:33;;;;;;;5.63;3.08;;;;;;;;;;4946910;29;20189;-90
2021/12/06 07:31:59;;;;;;;6.85;3.75;;;;;;;;;;4947766;28;20263;-90
2021/12/06 07:34:25;;;;;;;14.77;6.10;;;;;;;;;;4945042;29;20272;-91
2021/12/06 07:36:51;;;;;;;8.90;6.32;;;;;;;;;;4947020;29;20200;-91
2021/12/06 07:39:17;;;;;;;14.45;8.75;;;;;;;;;;4947400;29;20252;-91
2021/12/06 07:41:43;;;;;;;14.07;7.38;;;;;;;;;;4934041;29;20209;-91
2021/12/06 07:44:09;;;;;;;10.13;5.22;;;;;;;;;;4948220;29;20184;-90
2021/12/06 07:46:35;;;;;;;9.65;7.05;;;;;;;;;;4948074;29;20208;-90
2021/12/06 07:49:01;;;;;;;10.13;5.78;;;;;;;;;;4944159;29;20615;-89
2021/12/06 07:51:28;;;;;;;8.07;5.68;;;;;;;;;;4946551;29;20267;-89
2021/12/06 07:53:55;;;;;;;6.53;4.95;;;;;;;;;;4946266;29;20188;-90
2021/12/06 07:56:21;;;;;;;7.70;4.43;;;;;;;;;;4947508;29;20224;-90
2021/12/06 07:58:47;;;;;;;4.30;3.85;;;;;;;;;;4946020;29;20388;-91
2021/12/06 08:01:13;;;;;;;6.35;4.80;;;;;;;;;;4962016;29;20429;-89
2021/12/06 08:03:41;;;;;;;15.38;6.85;;;;;;;;;;4946999;29;20192;-91
2021/12/06 08:06:08;;;;;;;6.90;5.63;;;;;;;;;;4960010;28;20221;-90
2021/12/06 08:08:35;;;;;;;9.63;5.80;;;;;;;;;;4965587;28;20638;-89
2021/12/06 08:11:04;;;;;;;6.72;4.70;;;;;;;;;;4948497;28;20177;-89
2021/12/06 08:13:32;;;;;;;5.82;4.75;;;;;;;;;;4945541;29;20165;-89
2021/12/06 08:15:59;;;;;;;6.97;4.30;;;;;;;;;;4943838;29;20538;-89
2021/12/06 08:18:25;;;;;;;6.82;4.63;;;;;;;;;;4941418;29;20264;-90
2021/12/06 08:20:52;;;;;;;5.10;3.90;;;;;;;;;;4943300;29;20227;-89
2021/12/06 08:23:18;;;;;;;9.52;4.80;;;;;;;;;;4946042;29;20207;-89
2021/12/06 08:25:46;;;;;;;4.47;3.30;;;;;;;;;;4964747;29;20248;-88
2021/12/06 08:28:15;;;;;;;12.68;4.32;;;;;;;;;;4944944;29;20220;-89
2021/12/06 08:30:41;;;;;;;9.48;3.45;;;;;;;;;;4942475;29;20184;-89
2021/12/06 08:33:08;;;;;;;7.90;3.92;;;;;;;;;;4945329;29;20195;-89
2021/12/06 08:35:35;;;;;;;8.85;4.28;;;;;;;;;;4965296;28;20235;-90
2021/12/06 08:38:02;;;;;;;8.27;4.30;;;;;;;;;;4947852;28;20195;-89
2021/12/06 08:40:28;;;;;;;9.00;4.00;;;;;;;;;;4959407;29;20185;-90
2021/12/06 08:42:54;;;;;;;11.32;4.63;;;;;;;;;;4941614;29;20212;-89
2021/12/06 08:45:21;;;;;;;8.75;4.60;;;;;;;;;;4946460;29;20192;-90
2021/12/06 08:47:47;;;;;;;8.75;4.60;;;;;;;;;;4963322;28;20184;-86
2021/12/06 08:50:16;;;;;;;8.18;4.40;;;;;;;;;;4947193;28;20275;-88
2021/12/06 08:52:43;;;;;;;7.82;4.55;;;;;;;;;;4964025;29;20187;-86
2021/12/06 08:55:10;;;;;;;11.45;4.97;;;;;;;;;;4942789;29;20256;-85
2021/12/06 08:57:36;;;;;;;11.07;5.10;;;;;;;;;;4943630;29;20199;-86
2021/12/06 09:00:05;;;;;;;9.50;5.10;;;;;;;;;;4944196;29;20199;-87
2021/12/06 09:02:31;;;;;;;12.07;5.85;;;;;;;;;;4944523;29;20216;-88
2021/12/06 09:04:58;;;;;;;9.27;5.60;;;;;;;;;;4947901;29;20230;-87
2021/12/06 09:07:24;;;;;;;9.93;5.75;;;;;;;;;;4944957;29;20212;-87
2021/12/06 09:09:55;;;;;;;11.38;5.70;;;;;;;;;;4944225;29;20236;-88
2021/12/06 09:12:24;;;;;;;10.07;6.93;;;;;;;;;;4939595;29;20230;-87
2021/12/06 09:14:51;;;;;;;8.43;5.95;;;;;;;;;;4936545;29;20200;-88
2021/12/06 09:17:17;;;;;;;10.45;5.63;;;;;;;;;;4944783;28;20189;-87
2021/12/06 09:19:43;;;;;;;11.98;5.75;;;;;;;;;;4947908;29;20181;-87
2021/12/06 09:22:10;;;;;;;9.65;4.97;;;;;;;;;;4946546;29;20272;-87
2021/12/06 09:24:36;;;;;;;8.15;5.00;;;;;;;;;;4946213;29;20181;-88
2021/12/06 09:27:02;;;;;;;8.05;5.13;;;;;;;;;;4963590;28;20207;-91
2021/12/06 09:29:29;;;;;;;6.50;4.00;;;;;;;;;;4947115;29;20191;-91
2021/12/06 09:31:59;;;;;;;10.65;4.97;;;;;;;;;;4949548;29;20185;-90
2021/12/06 09:34:25;;;;;;;11.18;5.30;;;;;;;;;;4945811;29;20180;-91
2021/12/06 09:36:51;;;;;;;12.90;5.75;;;;;;;;;;4944993;29;20705;-90
2021/12/06 09:39:17;;;;;;;10.07;5.35;;;;;;;;;;4944882;29;20272;-89
2021/12/06 09:41:44;;;;;;;7.95;5.55;;;;;;;;;;4946027;29;20350;-90
2021/12/06 09:44:10;;;;;;;7.50;4.88;;;;;;;;;;4946235;28;20169;-86
2021/12/06 09:46:37;;;;;;;11.25;5.32;;;;;;;;;;4949352;29;20220;-87
2021/12/06 09:49:08;;;;;;;8.85;5.38;;;;;;;;;;4959935;28;20180;-86
2021/12/06 09:51:35;;;;;;;13.52;5.53;;;;;;;;;;4944546;29;20184;-86
2021/12/06 09:54:01;;;;;;;12.20;5.25;;;;;;;;;;4945569;29;20193;-87
2021/12/06 09:56:29;;;;;;;9.30;4.40;;;;;;;;;;4961145;28;20685;-86
2021/12/06 09:58:56;;;;;;;5.75;3.63;;;;;;;;;;4953569;29;20329;-85
2021/12/06 10:01:31;;;;;;;9.90;4.55;;;;;;;;;;4938459;29;20216;-86
2021/12/06 10:03:58;;;;;;;8.82;5.05;;;;;;;;;;4961900;28;20311;-86
2021/12/06 10:06:26;;;;;;;8.50;5.55;;;;;;;;;;4961722;28;20280;-86
2021/12/06 10:08:53;;;;;;;7.10;4.28;;;;;;;;;;4950689;29;20252;-86
2021/12/06 10:11:20;;;;;;;7.30;4.65;;;;;;;;;;4949701;28;20227;-86
2021/12/06 10:13:47;;;;;;;6.88;4.70;;;;;;;;;;4947349;29;20184;-86
2021/12/06 10:16:13;;;;;;;5.38;4.15;;;;;;;;;;4935866;29;20204;-86
2021/12/06 10:18:40;;;;;;;6.57;4.45;;;;;;;;;;4961211;28;20192;-86
2021/12/06 10:21:07;;;;;;;5.57;4.75;;;;;;;;;;4947215;29;20192;-88
2021/12/06 10:23:38;;;;;;;4.90;4.10;;;;;;;;;;4948868;29;20284;-86
2021/12/06 10:26:07;;;;;;;5.13;3.72;;;;;;;;;;4949310;28;20173;-86
2021/12/06 10:28:34;;;;;;;4.95;3.88;;;;;;;;;;4954207;29;20918;-87
2021/12/06 10:31:05;;;;;;;6.82;4.40;;;;;;;;;;4944820;29;20188;-86
2021/12/06 10:33:36;;;;;;;6.47;4.65;;;;;;;;;;4964448;28;20244;-87
2021/12/06 10:36:07;;;;;;;9.05;4.40;;;;;;;;;;4949862;29;20192;-90
2021/12/06 10:38:34;;;;;;;5.53;3.55;;;;;;;;;;4949025;29;20651;-89
2021/12/06 10:41:05;;;;;;;11.20;4.38;;;;;;;;;;4950147;28;20195;-91
2021/12/06 10:43:31;;;;;;;4.85;4.00;;;;;;;;;;4946371;29;20201;-91
2021/12/06 10:45:58;;;;;;;4.05;3.55;;;;;;;;;;4947204;29;20333;-91
2021/12/06 10:48:26;;;;;;;4.22;3.70;;;;;;;;;;4946989;29;20208;-90
2021/12/06 10:51:00;;;;;;;11.32;4.05;;;;;;;;;;4947196;29;20278;-90
2021/12/06 10:53:28;;;;;;;7.07;4.30;;;;;;;;;;4948816;29;20205;-91
2021/12/06 10:55:57;;;;;;;9.85;4.40;;;;;;;;;;4953176;28;20188;-90
2021/12/06 10:58:25;;;;;;;5.43;3.67;;;;;;;;;;4944831;29;20184;-91
2021/12/06 11:00:53;;;;;;;5.75;3.00;;;;;;;;;;4945776;29;20176;-92
2021/12/06 11:03:27;;;;;;;4.22;3.83;;;;;;;;;;4945465;29;20192;-91
2021/12/06 11:06:01;;;;;;;4.35;3.65;;;;;;;;;;4946325;28;20235;-90
2021/12/06 11:08:28;;;;;;;5.28;3.45;;;;;;;;;;4970967;28;20188;-91
2021/12/06 11:11:14;;;;;;;4.72;3.20;;;;;;;;;;4945781;29;20251;-92
2021/12/06 11:13:42;;;;;;;8.02;3.88;;;;;;;;;;4947685;29;20665;-92
2021/12/06 11:16:10;;;;;;;8.85;4.40;;;;;;;;;;4964114;28;20192;-90
2021/12/06 11:18:38;;;;;;;6.28;3.58;;;;;;;;;;4944037;29;20211;-90
2021/12/06 11:21:05;;;;;;;6.32;3.45;;;;;;;;;;4950220;29;20192;-89
2021/12/06 11:23:31;;;;;;;5.57;2.60;;;;;;;;;;4947703;29;20197;-90
2021/12/06 11:25:59;;;;;;;8.65;3.10;;;;;;;;;;4949101;29;20190;-91
2021/12/06 11:28:26;;;;;;;3.78;2.63;;;;;;;;;;4959727;29;20177;-90
2021/12/06 11:31:03;;;;;;;5.90;3.50;;;;;;;;;;4966221;28;20215;-93
2021/12/06 11:33:31;;;;;;;4.22;2.20;;;;;;;;;;4946824;29;20188;-89
2021/12/06 11:35:57;;;;;;;4.25;2.42;;;;;;;;;;4965695;28;20191;-90
2021/12/06 11:38:23;;;;;;;3.53;2.70;;;;;;;;;;4948741;28;20184;-92
2021/12/06 11:40:55;;;;;;;4.55;2.75;;;;;;;;;;4965999;28;20180;-90
2021/12/06 11:43:22;;;;;;;5.00;2.75;;;;;;;;;;4944486;29;20309;-92
2021/12/06 11:45:51;;;;;;;4.90;2.53;;;;;;;;;;4946512;29;20195;-92
2021/12/06 11:48:18;;;;;;;2.95;2.25;;;;;;;;;;4942190;29;20185;-90
2021/12/06 11:50:46;;;;;;;2.90;2.30;;;;;;;;;;4944295;29;20177;-91
2021/12/06 11:53:13;;;;;;;6.57;2.80;;;;;;;;;;4948243;28;20181;-90
2021/12/06 11:55:44;;;;;;;4.35;3.00;;;;;;;;;;4946169;29;20220;-88
2021/12/06 11:58:39;;;;;;;3.28;2.65;;;;;;;;;;4947668;29;20210;-88
2021/12/06 12:01:11;;;;;;;4.07;2.47;;;;;;;;;;4866989;29;20203;-89
2021/12/06 12:03:38;;;;;;;5.22;2.47;;;;;;;;;;4883875;29;20191;-91
2021/12/06 12:06:20;;;;;;;7.80;2.90;;;;;;;;;;4868035;29;20239;-89
2021/12/06 12:08:46;;;;;;;5.95;2.97;;;;;;;;;;4870047;29;20191;-91
2021/12/06 12:11:12;;;;;;;3.15;2.83;;;;;;;;;;4871203;29;20689;-89
2021/12/06 12:13:38;;;;;;;5.05;2.92;;;;;;;;;;4888105;29;20192;-90
2021/12/06 12:16:06;;;;;;;8.00;2.60;;;;;;;;;;4870103;29;20195;-89
2021/12/06 12:18:33;;;;;;;3.45;1.90;;;;;;;;;;4871098;29;20222;-90
2021/12/06 12:20:59;;;;;;;3.20;2.20;;;;;;;;;;4870211;29;20314;-89
2021/12/06 12:23:27;;;;;;;6.63;2.33;;;;;;;;;;4870932;29;20187;-89
2021/12/06 12:26:01;;;;;;;6.68;2.13;;;;;;;;;;4873682;29;20180;-83
2021/12/06 12:28:36;;;;;;;3.75;2.13;;;;;;;;;;4898692;29;20186;-91
2021/12/06 12:31:03;;;;;;;8.45;1.70;;;;;;;;;;4888918;29;20219;-92
2021/12/06 12:33:29;;;;;;;3.95;2.00;;;;;;;;;;4869009;29;20187;-91
2021/12/06 12:36:02;;;;;;;2.08;1.70;;;;;;;;;;4868051;29;20202;-90
2021/12/06 12:38:29;;;;;;;7.93;2.33;;;;;;;;;;4940956;29;20228;-90
2021/12/06 12:40:57;;;;;;;5.80;2.63;;;;;;;;;;4960516;29;20190;-91
2021/12/06 12:43:33;;;;;;;6.63;2.53;;;;;;;;;;4943313;29;20189;-90
2021/12/06 12:46:03;;;;;;;6.22;2.60;;;;;;;;;;4961081;28;20192;-93
2021/12/06 12:48:43;;;;;;;6.55;2.00;;;;;;;;;;4945472;29;20184;-89
2021/12/06 12:51:11;;;;;;;5.05;2.28;;;;;;;;;;4947840;29;20193;-91
2021/12/06 12:53:50;;;;;;;5.88;2.40;;;;;;;;;;4946469;29;20181;-91
2021/12/06 12:56:23;;;;;;;5.22;2.20;;;;;;;;;;4945270;28;20196;-91
2021/12/06 12:58:51;;;;;;;8.82;2.17;;;;;;;;;;4945459;29;20181;-90
2021/12/06 13:01:22;;;;;;;3.10;1.50;;;;;;;;;;4940913;29;20200;-91
2021/12/06 13:03:59;;;;;;;4.15;2.17;;;;;;;;;;4945195;29;20184;-90
2021/12/06 13:06:32;;;;;;;3.33;1.95;;;;;;;;;;4945377;29;20290;-92
2021/12/06 13:09:01;;;;;;;5.22;1.52;;;;;;;;;;4944853;29;20193;-93
2021/12/06 13:11:45;;;;;;;7.20;2.08;;;;;;;;;;4950594;29;20203;-92
2021/12/06 13:14:26;;;;;;;4.72;2.05;;;;;;;;;;4950312;28;20221;-92
2021/12/06 13:17:00;;;;;;;5.00;1.88;;;;;;;;;;4947516;29;20177;-92
2021/12/06 13:20:19;;;;;;;3.17;1.65;;;;;;;;;;4934787;29;20192;-91
2021/12/06 13:22:31;;;;;;;5.47;1.85;;;;;;;;;;4943397;29;20212;-92
2021/12/06 13:25:02;;;;;;;7.78;1.95;;;;;;;;;;4935892;29;20185;-91
2021/12/06 13:27:43;;;;;;;6.53;1.80;;;;;;;;;;4937746;29;20675;-92
2021/12/06 13:30:31;;;;;;;3.45;1.67;;;;;;;;;;4946701;29;20204;-90
2021/12/06 13:33:07;;;;;;;4.15;1.65;;;;;;;;;;4944230;28;20185;-93
2021/12/06 13:36:02;;;;;;;5.70;1.60;;;;;;;;;;4958707;28;20184;-91
2021/12/06 13:38:37;;;;;;;6.28;1.85;;;;;;;;;;4950956;28;20224;-87
2021/12/06 13:41:09;;;;;;;6.53;1.70;;;;;;;;;;4947365;28;20282;-88
2021/12/06 13:43:49;;;;;;;3.00;1.50;;;;;;;;;;4948897;29;20228;-88
2021/12/06 13:46:24;;;;;;;6.90;2.03;;;;;;;;;;4949206;29;20187;-89
2021/12/06 13:48:52;;;;;;;1.98;1.30;;;;;;;;;;4947880;29;20646;-87
2021/12/06 13:51:38;;;;;;;5.07;1.95;;;;;;;;;;4945984;29;20662;-88
2021/12/06 13:54:06;;;;;;;2.97;1.70;;;;;;;;;;4948587;29;20188;-88
2021/12/06 13:56:41;;;;;;;14.13;2.55;;;;;;;;;;4944801;29;20282;-89
2021/12/06 13:59:08;;;;;;;5.57;1.90;;;;;;;;;;4954797;28;20200;-90
2021/12/06 14:01:35;;;;;;;7.93;2.33;;;;;;;;;;4966257;28;20238;-89
2021/12/06 14:04:08;;;;;;;6.45;2.25;;;;;;;;;;4943366;29;20196;-90
2021/12/06 14:06:45;;;;;;;6.95;1.92;;;;;;;;;;4946684;29;20220;-88
2021/12/06 14:09:11;;;;;;;6.32;1.98;;;;;;;;;;4949502;29;20195;-88
2021/12/06 14:11:38;;;;;;;3.38;1.67;;;;;;;;;;4949736;29;20189;-90
2021/12/06 14:14:09;;;;;;;6.40;1.95;;;;;;;;;;4949547;28;20186;-91
2021/12/06 14:16:36;;;;;;;3.50;2.20;;;;;;;;;;4966227;29;20263;-88
2021/12/06 14:19:02;;;;;;;4.40;1.67;;;;;;;;;;4947799;29;20240;-89
2021/12/06 14:21:28;;;;;;;2.40;1.75;;;;;;;;;;4946018;29;20196;-89
2021/12/06 14:23:54;;;;;;;5.50;2.30;;;;;;;;;;4949672;29;20635;-89
2021/12/06 14:26:20;;;;;;;3.25;1.90;;;;;;;;;;4949040;28;20235;-88
2021/12/06 14:28:48;;;;;;;5.88;1.70;;;;;;;;;;4966776;29;20534;-91
2021/12/06 14:31:14;;;;;;;3.92;2.13;;;;;;;;;;4945921;29;20196;-90
2021/12/06 14:33:40;;;;;;;3.83;2.72;;;;;;;;;;4944023;29;20184;-90
2021/12/06 14:36:07;;;;;;;4.57;2.08;;;;;;;;;;4942272;29;20248;-90
2021/12/06 14:38:34;;;;;;;4.63;2.42;;;;;;;;;;4949120;29;20622;-89
2021/12/06 14:41:01;;;;;;;4.60;2.45;;;;;;;;;;4946906;28;20256;-90
2021/12/06 14:43:28;;;;;;;3.17;2.17;;;;;;;;;;4966267;29;20183;-83
2021/12/06 14:46:02;;;;;;;5.40;2.28;;;;;;;;;;4946253;29;20192;-87
2021/12/06 14:48:30;;;;;;;3.50;1.80;;;;;;;;;;4948164;29;20184;-85
2021/12/06 14:53:33;;;;;;;4.30;1.92;;;;;;;;;;4966956;28;20197;-89
2021/12/06 14:56:20;;;;;;;7.13;2.17;;;;;;;;;;4950497;29;20556;-89
2021/12/06 14:58:47;;;;;;;3.30;1.98;;;;;;;;;;4952721;29;20184;-88
2021/12/06 15:01:17;;;;;;;6.65;1.98;;;;;;;;;;4965708;28;20199;-90